createdAt,value
2023-03-02T00:02:32.516Z,105.30
2023-03-02T00:05:41.990Z,106.29
2023-03-02T00:08:48.880Z,110.84
2023-03-02T00:11:55.789Z,110.66
2023-03-02T00:15:01.716Z,107.57
2023-03-02T00:18:11.203Z,104.43
2023-03-02T00:21:17.545Z,107.51
2023-03-02T00:24:24.259Z,110.51
2023-03-02T00:27:30.363Z,111.62
2023-03-02T00:30:37.140Z,120.35
2023-03-02T00:33:46.406Z,126.19
2023-03-02T00:36:53.258Z,125.14
2023-03-02T00:39:59.266Z,125.09
2023-03-02T00:43:06.144Z,124.54
2023-03-02T00:46:14.569Z,123.04
2023-03-02T00:49:23.924Z,125.19
2023-03-02T00:52:29.905Z,123.69
2023-03-02T00:55:36.478Z,124.49
2023-03-02T00:58:42.617Z,126.28
2023-03-02T01:01:58.414Z,127.22
2023-03-02T01:05:09.966Z,124.74
2023-03-02T01:08:16.904Z,120.40
2023-03-02T01:11:25.984Z,121.11
2023-03-02T01:14:34.727Z,118.17
2023-03-02T01:17:41.476Z,118.38
2023-03-02T01:20:50.601Z,121.21
2023-03-02T01:23:56.443Z,125.71
2023-03-02T01:27:06.150Z,123.91
2023-03-02T01:30:14.339Z,122.20
2023-03-02T01:33:21.460Z,123.70
2023-03-02T01:36:30.981Z,123.53
2023-03-02T01:39:37.919Z,123.12
2023-03-02T01:43:02.497Z,122.55
2023-03-02T01:46:17.363Z,123.45
2023-03-02T01:49:31.647Z,126.18
2023-03-02T01:52:43.364Z,125.40
2023-03-02T01:55:50.638Z,126.53
2023-03-02T01:59:04.330Z,124.39
2023-03-02T02:02:14.834Z,123.00
2023-03-02T02:05:28.313Z,125.14
2023-03-02T02:08:38.102Z,125.84
2023-03-02T02:11:46.095Z,127.56
2023-03-02T02:14:54.287Z,130.19
2023-03-02T02:18:01.010Z,130.78
2023-03-02T02:21:08.551Z,126.48
2023-03-02T02:24:28.081Z,125.41
2023-03-02T02:27:36.780Z,123.42
2023-03-02T02:30:46.575Z,121.24
2023-03-02T02:34:00.577Z,120.37
2023-03-02T02:37:16.531Z,119.17
2023-03-02T02:40:44.727Z,118.96
2023-03-02T02:43:58.475Z,117.71
2023-03-02T02:47:05.861Z,116.70
2023-03-02T02:50:23.744Z,117.14
2023-03-02T02:53:38.085Z,117.16
2023-03-02T02:56:47.439Z,117.40
2023-03-02T03:00:04.060Z,116.29
2023-03-02T03:03:31.986Z,115.33
2023-03-02T03:06:42.418Z,117.01
2023-03-02T03:10:03.490Z,117.15
2023-03-02T03:13:11.416Z,116.71
2023-03-02T03:16:24.057Z,113.94
2023-03-02T03:19:33.336Z,111.00
2023-03-02T03:22:42.219Z,107.76
2023-03-02T03:25:50.048Z,105.47
2023-03-02T03:28:57.428Z,106.44
2023-03-02T03:32:08.438Z,105.34
2023-03-02T03:35:15.762Z,103.38
2023-03-02T03:38:22.112Z,100.66
2023-03-02T03:41:30.429Z,99.42
2023-03-02T03:44:36.564Z,96.88
2023-03-02T03:47:45.798Z,99.10
2023-03-02T03:50:52.245Z,103.84
2023-03-02T03:54:08.542Z,114.86
2023-03-02T03:57:17.615Z,119.72
2023-03-02T04:00:26.260Z,131.68
2023-03-02T04:03:40.029Z,127.62
2023-03-02T04:06:47.775Z,133.44
2023-03-02T04:10:03.615Z,128.95
2023-03-02T04:13:14.141Z,125.94
2023-03-02T04:16:20.244Z,125.86
2023-03-02T04:19:29.638Z,130.07
2023-03-02T04:22:37.308Z,130.59
2023-03-02T04:25:44.191Z,123.94
2023-03-02T04:28:54.150Z,117.53
2023-03-02T04:32:01.705Z,113.11
2023-03-02T04:35:12.789Z,110.82
2023-03-02T04:38:19.781Z,113.19
2023-03-02T04:41:26.667Z,112.89
2023-03-02T04:44:33.245Z,110.64
2023-03-02T04:47:39.294Z,108.24
2023-03-02T04:50:49.019Z,106.49
2023-03-02T04:53:57.509Z,102.86
2023-03-02T04:57:04.227Z,100.65
2023-03-02T05:00:13.147Z,100.91
2023-03-02T05:03:22.242Z,104.01
2023-03-02T05:06:31.155Z,107.99
2023-03-02T05:09:39.500Z,107.33
2023-03-02T05:12:58.359Z,110.10
2023-03-02T05:16:05.175Z,114.56
2023-03-02T05:19:18.055Z,117.01
2023-03-02T05:22:27.280Z,121.01
2023-03-02T05:25:37.144Z,132.82
2023-03-02T05:28:47.077Z,139.52
2023-03-02T05:31:53.574Z,163.04
2023-03-02T05:35:00.661Z,195.66
2023-03-02T05:38:09.454Z,192.33
2023-03-02T05:41:16.062Z,176.23
2023-03-02T05:44:22.109Z,161.24
2023-03-02T05:47:28.764Z,157.77
2023-03-02T05:50:34.999Z,157.20
2023-03-02T05:53:44.180Z,173.70
2023-03-02T05:56:50.444Z,180.84
2023-03-02T05:59:57.048Z,171.01
2023-03-02T06:03:06.358Z,159.17
2023-03-02T06:06:14.453Z,145.17
2023-03-02T06:09:22.997Z,144.47
2023-03-02T06:12:29.834Z,143.55
2023-03-02T06:15:35.744Z,131.78
2023-03-02T06:18:46.149Z,129.73
2023-03-02T06:21:51.929Z,124.05
2023-03-02T06:25:01.077Z,115.20
2023-03-02T06:28:09.852Z,114.74
2023-03-02T06:31:16.451Z,116.03
2023-03-02T06:34:22.274Z,116.10
2023-03-02T06:37:28.991Z,110.61
2023-03-02T06:40:40.015Z,100.91
2023-03-02T06:43:46.840Z,98.28
2023-03-02T06:46:52.661Z,97.83
2023-03-02T06:49:59.495Z,97.19
2023-03-02T06:53:05.758Z,97.45
2023-03-02T06:56:14.979Z,96.12
2023-03-02T06:59:20.731Z,95.76
2023-03-02T07:02:27.332Z,93.69
2023-03-02T07:05:34.051Z,91.64
2023-03-02T07:08:40.635Z,84.95
2023-03-02T07:11:49.069Z,88.54
2023-03-02T07:14:55.608Z,95.32
2023-03-02T07:18:01.604Z,95.23
2023-03-02T07:21:09.334Z,91.88
2023-03-02T07:24:15.118Z,84.08
2023-03-02T07:27:24.535Z,81.06
2023-03-02T07:30:32.743Z,77.50
2023-03-02T07:33:40.257Z,75.91
2023-03-02T07:36:45.965Z,73.72
2023-03-02T07:39:54.224Z,69.84
2023-03-02T07:43:02.778Z,69.51
2023-03-02T07:46:09.706Z,67.31
2023-03-02T07:49:15.601Z,65.95
2023-03-02T07:52:22.169Z,66.80
2023-03-02T07:55:28.051Z,65.76
2023-03-02T07:58:38.902Z,64.89
2023-03-02T08:01:44.822Z,67.08
2023-03-02T08:04:52.458Z,67.96
2023-03-02T08:07:58.275Z,67.37
2023-03-02T08:11:08.943Z,69.13
2023-03-02T08:14:17.579Z,68.73
2023-03-02T08:17:24.282Z,65.21
2023-03-02T08:20:30.378Z,63.71
2023-03-02T08:23:37.327Z,61.96
2023-03-02T08:26:44.853Z,56.37
2023-03-02T08:29:54.690Z,55.50
2023-03-02T08:33:04.425Z,58.99
2023-03-02T08:36:17.837Z,57.00
2023-03-02T08:39:23.965Z,55.26
2023-03-02T08:42:30.657Z,41.98
2023-03-02T08:45:40.805Z,33.66
2023-03-02T08:48:48.305Z,31.23
2023-03-02T08:51:56.462Z,30.43
2023-03-02T08:55:04.131Z,31.16
2023-03-02T08:58:10.078Z,30.91
2023-03-02T09:01:22.184Z,30.37
2023-03-02T09:04:28.024Z,28.98
2023-03-02T09:07:35.814Z,25.91
2023-03-02T09:10:42.180Z,27.23
2023-03-02T09:13:49.162Z,27.04
2023-03-02T09:16:57.555Z,26.47
2023-03-02T09:20:04.276Z,26.39
2023-03-02T09:23:11.202Z,25.53
2023-03-02T09:26:17.968Z,25.14
2023-03-02T09:29:23.824Z,25.04
2023-03-02T09:32:33.351Z,28.09
2023-03-02T09:35:42.131Z,25.93
2023-03-02T09:38:48.803Z,24.69
2023-03-02T09:42:44.397Z,24.42
2023-03-02T09:46:11.740Z,21.61
2023-03-02T09:49:35.816Z,22.64
2023-03-02T09:52:53.668Z,22.58
2023-03-02T09:56:02.649Z,21.46
2023-03-02T09:59:24.078Z,22.26
2023-03-02T10:02:38.367Z,21.79
2023-03-02T10:05:51.163Z,21.77
2023-03-02T10:08:58.119Z,21.13
2023-03-02T10:12:45.107Z,20.78
2023-03-02T10:16:11.643Z,21.22
2023-03-02T10:19:28.699Z,20.64
2023-03-02T10:22:49.486Z,20.86
2023-03-02T10:26:05.421Z,19.51
2023-03-02T10:29:42.751Z,18.44
2023-03-02T10:32:55.084Z,20.37
2023-03-02T10:36:01.330Z,20.48
2023-03-02T10:39:19.346Z,19.91
2023-03-02T10:42:33.889Z,19.26
2023-03-02T10:45:40.567Z,20.19
2023-03-02T10:48:56.367Z,20.00
2023-03-02T10:52:08.570Z,20.15
2023-03-02T10:55:20.193Z,19.84
2023-03-02T10:58:33.624Z,18.44
2023-03-02T11:01:39.473Z,17.38
2023-03-02T11:04:46.489Z,18.34
2023-03-02T11:07:57.703Z,19.38
2023-03-02T11:11:08.310Z,19.37
2023-03-02T11:14:20.388Z,19.96
2023-03-02T11:17:37.455Z,19.92
2023-03-02T11:20:50.217Z,20.07
2023-03-02T11:24:12.407Z,21.00
2023-03-02T11:27:30.657Z,19.65
2023-03-02T11:30:49.969Z,20.85
2023-03-02T11:34:18.034Z,20.29
2023-03-02T11:37:32.994Z,20.01
2023-03-02T11:40:49.842Z,19.11
2023-03-02T11:44:04.971Z,20.88
2023-03-02T11:47:16.295Z,20.88
2023-03-02T11:50:24.341Z,60.82
2023-03-02T11:53:44.452Z,57.85
2023-03-02T11:56:51.291Z,20.55
2023-03-02T12:00:02.496Z,20.85
2023-03-02T12:03:41.553Z,30.71
2023-03-02T12:06:47.347Z,22.56
2023-03-02T12:10:07.809Z,20.63
2023-03-02T12:13:26.234Z,21.11
2023-03-02T12:16:43.254Z,20.04
2023-03-02T12:19:51.761Z,21.30
2023-03-02T12:23:11.648Z,20.50
2023-03-02T12:26:34.054Z,20.21
2023-03-02T12:29:44.325Z,19.96
2023-03-02T12:33:07.035Z,20.01
2023-03-02T12:36:28.087Z,20.38
2023-03-02T12:40:11.686Z,18.46
2023-03-02T12:43:32.718Z,18.33
2023-03-02T12:46:41.121Z,17.59
2023-03-02T12:50:00.758Z,16.72
2023-03-02T12:53:10.075Z,18.38
2023-03-02T12:56:26.995Z,18.48
2023-03-02T12:59:32.992Z,17.73
2023-03-02T13:02:40.313Z,18.17
2023-03-02T13:05:50.169Z,18.16
2023-03-02T13:09:01.608Z,18.64
2023-03-02T13:12:08.194Z,19.02
2023-03-02T13:15:20.501Z,19.44
2023-03-02T13:18:32.167Z,18.56
2023-03-02T13:21:42.933Z,18.77
2023-03-02T13:24:54.810Z,17.82
2023-03-02T13:28:07.652Z,18.11
2023-03-02T13:31:28.081Z,21.83
2023-03-02T13:34:52.717Z,18.27
2023-03-02T13:38:07.721Z,17.30
2023-03-02T13:41:25.924Z,17.47
2023-03-02T13:44:37.632Z,23.10
2023-03-02T13:47:44.779Z,76.98
2023-03-02T13:51:03.037Z,45.02
2023-03-02T13:54:25.073Z,20.09
2023-03-02T13:57:35.743Z,22.73
2023-03-02T14:00:43.267Z,19.32
2023-03-02T14:03:49.226Z,25.84
2023-03-02T14:06:58.138Z,37.81
2023-03-02T14:10:07.344Z,31.52
2023-03-02T14:13:22.806Z,31.96
2023-03-02T14:16:28.597Z,31.69
2023-03-02T14:19:35.252Z,28.81
2023-03-02T14:22:41.063Z,27.11
2023-03-02T14:25:51.113Z,27.15
2023-03-02T14:29:05.585Z,26.25
2023-03-02T14:32:16.024Z,27.78
2023-03-02T14:35:21.963Z,25.37
2023-03-02T14:38:30.725Z,24.58
2023-03-02T14:41:52.865Z,25.74
2023-03-02T14:45:00.545Z,23.88
2023-03-02T14:48:06.859Z,22.40
2023-03-02T14:51:28.400Z,21.80
2023-03-02T14:54:43.846Z,34.91
2023-03-02T14:58:01.177Z,23.12
2023-03-02T15:01:08.624Z,21.72
2023-03-02T15:04:15.124Z,23.97
2023-03-02T15:07:27.714Z,21.49
2023-03-02T15:10:34.841Z,19.19
2023-03-02T15:13:45.724Z,19.78
2023-03-02T15:16:52.600Z,23.95
2023-03-02T15:19:58.822Z,21.25
2023-03-02T15:23:05.853Z,20.14
2023-03-02T15:26:14.920Z,19.70
2023-03-02T15:29:24.907Z,19.78
2023-03-02T15:32:30.798Z,20.16
2023-03-02T15:35:37.431Z,19.07
2023-03-02T15:38:43.449Z,20.21
2023-03-02T15:41:50.137Z,19.89
2023-03-02T15:44:58.636Z,22.64
2023-03-02T15:48:05.280Z,23.96
2023-03-02T15:51:12.940Z,34.52
2023-03-02T15:54:20.997Z,26.95
2023-03-02T15:57:26.823Z,24.68
2023-03-02T16:00:37.968Z,21.95
2023-03-02T16:03:43.842Z,21.09
2023-03-02T16:06:50.688Z,21.47
2023-03-02T16:09:56.796Z,26.79
2023-03-02T16:13:04.737Z,33.16
2023-03-02T16:16:13.553Z,36.56
2023-03-02T16:19:22.011Z,40.44
2023-03-02T16:22:28.013Z,39.89
2023-03-02T16:25:34.808Z,36.75
2023-03-02T16:28:40.700Z,36.48
2023-03-02T16:31:51.636Z,36.81
2023-03-02T16:34:58.049Z,36.28
2023-03-02T16:38:05.015Z,37.05
2023-03-02T16:41:19.219Z,36.59
2023-03-02T16:44:25.896Z,36.73
2023-03-02T16:47:34.515Z,33.97
2023-03-02T16:50:41.614Z,35.63
2023-03-02T16:53:48.229Z,32.88
2023-03-02T16:56:54.897Z,34.60
2023-03-02T17:00:05.772Z,33.09
2023-03-02T17:03:15.151Z,36.03
2023-03-02T17:06:30.296Z,47.11
2023-03-02T17:09:41.442Z,163.29
2023-03-02T17:12:50.266Z,252.11
2023-03-02T17:15:57.751Z,277.34
2023-03-02T17:19:06.208Z,222.23
2023-03-02T17:22:12.990Z,155.02
2023-03-02T17:25:19.229Z,125.02
2023-03-02T17:28:26.666Z,261.07
2023-03-02T17:31:32.584Z,173.77
2023-03-02T17:34:43.516Z,134.28
2023-03-02T17:37:49.609Z,98.06
2023-03-02T17:40:56.188Z,88.67
2023-03-02T17:44:02.610Z,86.48
2023-03-02T17:47:13.236Z,96.73
2023-03-02T17:50:22.390Z,98.24
2023-03-02T17:53:28.900Z,99.15
2023-03-02T17:56:34.824Z,102.07
2023-03-02T17:59:43.106Z,106.07
2023-03-02T18:02:49.367Z,104.87
2023-03-02T18:05:58.763Z,114.34
2023-03-02T18:09:08.204Z,100.37
2023-03-02T18:12:14.793Z,85.62
2023-03-02T18:15:20.792Z,71.83
2023-03-02T18:18:27.857Z,63.15
2023-03-02T18:21:36.889Z,75.30
2023-03-02T18:24:43.447Z,85.33
2023-03-02T18:27:49.620Z,99.54
2023-03-02T18:30:56.228Z,96.63
2023-03-02T18:34:02.177Z,96.91
2023-03-02T18:37:11.793Z,106.73
2023-03-02T18:40:18.510Z,118.20
2023-03-02T18:43:25.137Z,106.29
2023-03-02T18:46:35.058Z,123.83
2023-03-02T18:49:42.774Z,326.29
2023-03-02T18:52:53.073Z,131.72
2023-03-02T18:55:59.927Z,87.50
2023-03-02T18:59:07.391Z,82.31
2023-03-02T19:02:17.242Z,84.87
2023-03-02T19:05:27.092Z,95.58
2023-03-02T19:08:37.229Z,91.61
2023-03-02T19:11:43.154Z,94.42
2023-03-02T19:14:50.074Z,93.06
2023-03-02T19:17:57.369Z,96.73
2023-03-02T19:21:05.041Z,98.00
2023-03-02T19:24:13.773Z,91.25
2023-03-02T19:27:20.494Z,88.62
2023-03-02T19:30:30.069Z,86.89
2023-03-02T19:33:36.955Z,91.77
2023-03-02T19:36:42.900Z,79.29
2023-03-02T19:39:52.596Z,78.87
2023-03-02T19:42:58.820Z,89.63
2023-03-02T19:46:05.616Z,107.04
2023-03-02T19:49:11.599Z,94.50
2023-03-02T19:52:18.594Z,89.07
2023-03-02T19:55:28.952Z,87.47
2023-03-02T19:58:35.945Z,95.37
2023-03-02T20:01:42.245Z,93.94
2023-03-02T20:04:51.078Z,98.33
2023-03-02T20:07:58.027Z,98.51
2023-03-02T20:11:07.957Z,94.52
2023-03-02T20:14:27.625Z,97.88
2023-03-02T20:17:39.750Z,98.14
2023-03-02T20:20:47.403Z,99.46
2023-03-02T20:23:54.752Z,97.78
2023-03-02T20:27:03.727Z,95.01
2023-03-02T20:30:21.631Z,94.57
2023-03-02T20:33:32.456Z,93.19
2023-03-02T20:36:40.988Z,97.71
2023-03-02T20:39:49.869Z,95.51
2023-03-02T20:42:59.254Z,103.18
2023-03-02T20:46:05.969Z,95.82
2023-03-02T20:49:15.992Z,107.46
2023-03-02T20:52:21.830Z,111.98
2023-03-02T20:55:29.822Z,119.14
2023-03-02T20:58:41.315Z,111.19
2023-03-02T21:01:48.185Z,101.72
2023-03-02T21:04:54.429Z,103.90
2023-03-02T21:08:01.608Z,102.03
2023-03-02T21:11:08.098Z,100.71
2023-03-02T21:14:17.565Z,108.79
2023-03-02T21:17:24.471Z,104.55
2023-03-02T21:20:36.040Z,109.24
2023-03-02T21:23:42.747Z,149.80
2023-03-02T21:26:52.279Z,139.47
2023-03-02T21:30:03.456Z,131.68
2023-03-02T21:33:10.572Z,148.07
2023-03-02T21:36:22.360Z,137.43
2023-03-02T21:39:29.444Z,132.81
2023-03-02T21:42:35.317Z,140.88
2023-03-02T21:45:45.300Z,132.23
2023-03-02T21:48:53.625Z,124.66
2023-03-02T21:52:00.756Z,126.27
2023-03-02T21:55:06.976Z,127.21
2023-03-02T21:58:13.637Z,124.57
2023-03-02T22:01:22.251Z,128.73
2023-03-02T22:04:28.939Z,122.92
2023-03-02T22:07:35.075Z,115.87
2023-03-02T22:10:45.631Z,114.98
2023-03-02T22:13:54.077Z,118.18
2023-03-02T22:17:03.695Z,120.39
2023-03-02T22:20:20.596Z,125.05
2023-03-02T22:23:29.431Z,118.68
2023-03-02T22:26:35.851Z,132.31
2023-03-02T22:29:46.859Z,118.10
2023-03-02T22:32:58.385Z,112.58
2023-03-02T22:36:19.118Z,110.79
2023-03-02T22:39:36.355Z,111.05
2023-03-02T22:42:44.036Z,116.48
2023-03-02T22:45:51.195Z,116.16
2023-03-02T22:49:02.606Z,122.26
2023-03-02T22:52:21.170Z,121.92
2023-03-02T22:55:45.137Z,123.18
2023-03-02T22:58:53.739Z,123.04
2023-03-02T23:02:05.435Z,120.28
2023-03-02T23:05:29.846Z,120.31
2023-03-02T23:08:36.598Z,118.07
2023-03-02T23:11:45.118Z,123.36
2023-03-02T23:14:54.546Z,124.35
2023-03-02T23:18:01.608Z,129.71
2023-03-02T23:21:24.174Z,119.02
2023-03-02T23:24:30.125Z,118.60
2023-03-02T23:27:36.790Z,121.10
2023-03-02T23:30:42.763Z,117.91
2023-03-02T23:33:55.808Z,114.86
2023-03-02T23:37:10.240Z,105.90
2023-03-02T23:40:23.101Z,99.77
2023-03-02T23:43:29.266Z,100.00
2023-03-02T23:46:36.714Z,100.66
2023-03-02T23:49:42.617Z,96.98
2023-03-02T23:52:51.858Z,96.40
2023-03-02T23:55:58.815Z,106.30
2023-03-02T23:59:05.545Z,105.00
